Time;durP1;ratioP1;P1;durP2;ratioP2;P2;SDS_P1;SDS_P2;PMS_P1;PMS_P2;Temp;Humidity;BMP_temperature;BMP_pressure;BME280_temperature;BME280_humidity;BME280_pressure;Samples;Min_cycle;Max_cycle;Signal;HPM_P1;HPM_P2
2023/07/18 00:00:45;;;;;;;0.10;0.10;;;;;;;;;;5093711;28;20069;-49
2023/07/18 00:03:12;;;;;;;0.10;0.10;;;;;;;;;;5094192;28;20062;-49
2023/07/18 00:05:39;;;;;;;0.10;0.10;;;;;;;;;;5111501;28;20044;-48
2023/07/18 00:08:06;;;;;;;0.10;0.10;;;;;;;;;;5111694;28;20569;-45
2023/07/18 00:10:32;;;;;;;0.10;0.10;;;;;;;;;;5102931;28;20135;-48
2023/07/18 00:12:58;;;;;;;0.10;0.10;;;;;;;;;;5090771;28;20394;-48
2023/07/18 00:15:24;;;;;;;0.10;0.10;;;;;;;;;;5100960;28;20048;-48
2023/07/18 00:17:50;;;;;;;0.10;0.10;;;;;;;;;;5111262;28;20484;-48
2023/07/18 00:20:18;;;;;;;0.10;0.10;;;;;;;;;;5110906;28;20058;-47
2023/07/18 00:22:51;;;;;;;0.10;0.10;;;;;;;;;;5111516;28;20044;-47
2023/07/18 00:25:19;;;;;;;0.10;0.10;;;;;;;;;;5111609;28;20624;-48
2023/07/18 00:27:53;;;;;;;0.10;0.10;;;;;;;;;;5111025;28;20040;-48
2023/07/18 00:30:20;;;;;;;0.10;0.10;;;;;;;;;;5111026;28;20482;-48
2023/07/18 00:32:46;;;;;;;0.10;0.10;;;;;;;;;;5111517;28;20480;-48
2023/07/18 00:35:12;;;;;;;0.10;0.10;;;;;;;;;;5111520;28;20070;-48
2023/07/18 00:37:39;;;;;;;0.10;0.10;;;;;;;;;;5110643;28;20089;-48
2023/07/18 00:40:10;;;;;;;0.10;0.10;;;;;;;;;;5111149;28;20048;-48
2023/07/18 00:42:36;;;;;;;0.10;0.10;;;;;;;;;;5110455;28;20525;-48
2023/07/18 00:45:02;;;;;;;0.10;0.10;;;;;;;;;;5110413;28;20426;-48
2023/07/18 00:47:27;;;;;;;0.10;0.10;;;;;;;;;;5110929;28;20074;-47
2023/07/18 00:49:53;;;;;;;0.10;0.10;;;;;;;;;;5110752;28;20416;-48
2023/07/18 00:52:20;;;;;;;0.10;0.10;;;;;;;;;;5111267;28;20075;-47
2023/07/18 00:54:46;;;;;;;0.10;0.10;;;;;;;;;;5111667;28;20050;-48
2023/07/18 00:57:12;;;;;;;0.10;0.10;;;;;;;;;;5111431;28;20047;-48
2023/07/18 00:59:38;;;;;;;0.10;0.10;;;;;;;;;;5111012;28;20066;-47
2023/07/18 01:02:04;;;;;;;0.10;0.10;;;;;;;;;;5111275;28;20055;-49
2023/07/18 01:04:29;;;;;;;0.10;0.10;;;;;;;;;;5111462;28;20103;-49
2023/07/18 01:06:55;;;;;;;0.10;0.10;;;;;;;;;;5111463;28;20056;-48
2023/07/18 01:09:20;;;;;;;0.10;0.10;;;;;;;;;;5111511;28;20047;-49
2023/07/18 01:11:46;;;;;;;0.10;0.10;;;;;;;;;;5110124;28;20059;-46
2023/07/18 01:14:11;;;;;;;0.10;0.10;;;;;;;;;;5110816;28;20096;-46
2023/07/18 01:16:37;;;;;;;0.10;0.10;;;;;;;;;;5100350;27;20503;-49
2023/07/18 01:19:02;;;;;;;0.10;0.10;;;;;;;;;;5103103;28;20461;-49
2023/07/18 01:21:28;;;;;;;0.10;0.10;;;;;;;;;;5110934;28;20380;-48
2023/07/18 01:23:53;;;;;;;0.10;0.10;;;;;;;;;;5111189;28;20551;-49
2023/07/18 01:26:19;;;;;;;0.10;0.10;;;;;;;;;;5111022;28;20077;-49
2023/07/18 01:28:45;;;;;;;0.10;0.10;;;;;;;;;;5110697;28;20404;-48
2023/07/18 01:31:10;;;;;;;0.10;0.10;;;;;;;;;;5097717;28;20543;-49
2023/07/18 01:33:36;;;;;;;0.10;0.10;;;;;;;;;;5093022;28;20044;-48
2023/07/18 01:36:02;;;;;;;0.10;0.10;;;;;;;;;;5094454;28;20435;-48
2023/07/18 01:38:29;;;;;;;0.10;0.10;;;;;;;;;;5100011;28;20044;-49
2023/07/18 01:40:55;;;;;;;0.10;0.10;;;;;;;;;;5103285;28;20067;-48
2023/07/18 01:43:22;;;;;;;0.10;0.10;;;;;;;;;;5096919;28;20400;-49
2023/07/18 01:45:47;;;;;;;0.10;0.10;;;;;;;;;;5113577;28;20051;-48
2023/07/18 01:48:13;;;;;;;0.10;0.10;;;;;;;;;;5113806;28;20146;-48
2023/07/18 01:50:39;;;;;;;0.10;0.10;;;;;;;;;;5105772;28;20048;-48
2023/07/18 01:53:04;;;;;;;0.10;0.10;;;;;;;;;;5093851;28;20464;-47
2023/07/18 01:55:30;;;;;;;0.10;0.10;;;;;;;;;;5094378;28;20074;-48
2023/07/18 01:57:55;;;;;;;0.10;0.10;;;;;;;;;;5093744;28;20050;-49
2023/07/18 02:00:21;;;;;;;0.10;0.10;;;;;;;;;;5096856;28;20052;-45
2023/07/18 02:02:49;;;;;;;0.10;0.10;;;;;;;;;;5112891;28;20073;-49
2023/07/18 02:05:17;;;;;;;0.10;0.10;;;;;;;;;;5114355;28;20054;-47
2023/07/18 02:07:43;;;;;;;0.10;0.10;;;;;;;;;;5114142;28;20104;-48
2023/07/18 02:10:08;;;;;;;0.10;0.10;;;;;;;;;;5113152;28;20130;-48
2023/07/18 02:12:34;;;;;;;0.10;0.10;;;;;;;;;;5113784;28;20048;-48
2023/07/18 02:14:59;;;;;;;0.10;0.10;;;;;;;;;;5114019;28;20624;-46
2023/07/18 02:17:25;;;;;;;0.10;0.10;;;;;;;;;;5130363;28;20089;-48
2023/07/18 02:19:51;;;;;;;0.10;0.10;;;;;;;;;;5128550;28;20059;-48
2023/07/18 02:22:18;;;;;;;0.10;0.10;;;;;;;;;;5113776;28;20051;-46
2023/07/18 02:24:44;;;;;;;0.10;0.10;;;;;;;;;;5113985;28;20079;-48
2023/07/18 02:27:10;;;;;;;0.10;0.10;;;;;;;;;;5113654;28;20071;-45
2023/07/18 02:29:35;;;;;;;0.10;0.10;;;;;;;;;;5113723;28;20600;-48
2023/07/18 02:32:01;;;;;;;0.10;0.10;;;;;;;;;;5111033;28;20456;-48
2023/07/18 02:34:26;;;;;;;0.10;0.10;;;;;;;;;;5113667;28;20068;-46
2023/07/18 02:36:52;;;;;;;0.10;0.10;;;;;;;;;;5113916;28;20048;-49
2023/07/18 02:39:19;;;;;;;0.10;0.10;;;;;;;;;;5113796;28;20048;-50
2023/07/18 02:41:44;;;;;;;0.10;0.10;;;;;;;;;;5112538;28;20476;-53
2023/07/18 02:44:11;;;;;;;0.10;0.10;;;;;;;;;;5112388;28;20050;-52
2023/07/18 02:46:36;;;;;;;0.10;0.10;;;;;;;;;;5112716;28;20105;-53
2023/07/18 02:49:03;;;;;;;0.10;0.10;;;;;;;;;;5113589;28;20043;-52
2023/07/18 02:51:29;;;;;;;0.10;0.10;;;;;;;;;;5097870;28;20055;-53
2023/07/18 02:53:54;;;;;;;0.10;0.10;;;;;;;;;;5092344;28;20044;-52
2023/07/18 02:56:20;;;;;;;0.10;0.10;;;;;;;;;;5092771;28;20044;-53
2023/07/18 02:58:47;;;;;;;0.10;0.10;;;;;;;;;;5092364;28;20048;-53
2023/07/18 03:01:12;;;;;;;0.10;0.10;;;;;;;;;;5092172;28;20043;-52
2023/07/18 03:03:38;;;;;;;0.10;0.10;;;;;;;;;;5108344;28;20161;-53
2023/07/18 03:06:04;;;;;;;0.10;0.10;;;;;;;;;;5112644;28;20052;-53
2023/07/18 03:08:32;;;;;;;0.10;0.10;;;;;;;;;;5113101;28;20073;-53
2023/07/18 03:11:00;;;;;;;0.10;0.10;;;;;;;;;;5100609;28;20048;-53
2023/07/18 03:13:27;;;;;;;0.10;0.10;;;;;;;;;;5091952;28;20048;-52
2023/07/18 03:15:54;;;;;;;0.10;0.10;;;;;;;;;;5091618;27;20048;-52
2023/07/18 03:18:20;;;;;;;0.10;0.10;;;;;;;;;;5092280;28;20044;-53
2023/07/18 03:20:46;;;;;;;0.10;0.10;;;;;;;;;;5101107;28;20067;-53
2023/07/18 03:23:11;;;;;;;0.10;0.10;;;;;;;;;;5112169;28;20097;-53
2023/07/18 03:25:37;;;;;;;0.10;0.10;;;;;;;;;;5111952;28;20343;-52
2023/07/18 03:28:03;;;;;;;0.10;0.10;;;;;;;;;;5112561;28;20460;-52
2023/07/18 03:30:28;;;;;;;0.10;0.10;;;;;;;;;;5104951;28;20564;-52
2023/07/18 03:32:54;;;;;;;0.10;0.10;;;;;;;;;;5104647;28;20066;-53
2023/07/18 03:35:20;;;;;;;0.10;0.10;;;;;;;;;;5112096;28;20160;-52
2023/07/18 03:37:45;;;;;;;0.10;0.10;;;;;;;;;;5112348;28;20109;-53
2023/07/18 03:40:15;;;;;;;0.10;0.10;;;;;;;;;;5111554;28;20428;-52
2023/07/18 03:42:41;;;;;;;0.10;0.10;;;;;;;;;;5111610;28;20055;-52
2023/07/18 03:45:09;;;;;;;0.10;0.10;;;;;;;;;;5112215;28;20164;-53
2023/07/18 03:47:36;;;;;;;0.10;0.10;;;;;;;;;;5111556;28;20837;-53
2023/07/18 03:50:02;;;;;;;0.10;0.10;;;;;;;;;;5094402;28;20052;-52
2023/07/18 03:52:28;;;;;;;0.38;0.20;;;;;;;;;;5112188;28;20055;-53
2023/07/18 03:54:54;;;;;;;0.10;0.10;;;;;;;;;;5111587;28;20039;-53
2023/07/18 03:57:19;;;;;;;0.10;0.10;;;;;;;;;;5111487;28;20698;-53
2023/07/18 03:59:45;;;;;;;0.10;0.10;;;;;;;;;;5111679;28;20047;-53
2023/07/18 04:02:12;;;;;;;0.10;0.10;;;;;;;;;;5111706;28;20409;-52
2023/07/18 04:04:37;;;;;;;0.10;0.10;;;;;;;;;;5111840;28;20135;-53
2023/07/18 04:07:03;;;;;;;0.10;0.10;;;;;;;;;;5111840;28;20043;-53
2023/07/18 04:09:29;;;;;;;0.10;0.10;;;;;;;;;;5111623;28;20050;-54
2023/07/18 04:11:55;;;;;;;0.10;0.10;;;;;;;;;;5110412;28;20070;-51
2023/07/18 04:14:20;;;;;;;0.10;0.10;;;;;;;;;;5110984;28;20048;-52
2023/07/18 04:16:46;;;;;;;0.10;0.10;;;;;;;;;;5131165;28;20515;-52
2023/07/18 04:19:12;;;;;;;0.10;0.10;;;;;;;;;;5131602;28;20058;-52
2023/07/18 04:21:37;;;;;;;0.10;0.10;;;;;;;;;;5098118;28;20044;-52
2023/07/18 04:24:04;;;;;;;0.10;0.10;;;;;;;;;;5100333;28;20085;-52
2023/07/18 04:26:30;;;;;;;0.10;0.10;;;;;;;;;;5111324;28;20040;-53
2023/07/18 04:28:55;;;;;;;0.10;0.10;;;;;;;;;;5111228;28;20295;-53
2023/07/18 04:31:21;;;;;;;0.10;0.10;;;;;;;;;;5110342;28;20047;-52
2023/07/18 04:33:47;;;;;;;0.10;0.10;;;;;;;;;;5110673;28;20484;-52
2023/07/18 04:36:12;;;;;;;0.10;0.10;;;;;;;;;;5110737;28;20101;-53
2023/07/18 04:38:38;;;;;;;0.10;0.10;;;;;;;;;;5110967;28;20499;-52
2023/07/18 04:41:04;;;;;;;0.28;0.28;;;;;;;;;;5110002;28;20495;-53
2023/07/18 04:43:29;;;;;;;0.10;0.10;;;;;;;;;;5110527;28;20380;-52
2023/07/18 04:45:55;;;;;;;0.10;0.10;;;;;;;;;;5109918;28;20140;-53
2023/07/18 04:48:20;;;;;;;0.10;0.10;;;;;;;;;;5110643;28;20161;-53
2023/07/18 04:50:55;;;;;;;0.10;0.10;;;;;;;;;;5100585;28;20052;-52
2023/07/18 04:53:21;;;;;;;0.10;0.10;;;;;;;;;;5090578;28;20048;-52
2023/07/18 04:55:50;;;;;;;0.10;0.10;;;;;;;;;;5089744;28;20484;-53
2023/07/18 04:58:15;;;;;;;0.10;0.10;;;;;;;;;;5090149;28;20048;-52
2023/07/18 05:00:41;;;;;;;0.10;0.10;;;;;;;;;;5089960;28;20113;-53
2023/07/18 05:03:07;;;;;;;0.10;0.10;;;;;;;;;;5090418;28;20519;-52
2023/07/18 05:05:32;;;;;;;0.10;0.10;;;;;;;;;;5092564;28;20040;-52
2023/07/18 05:07:59;;;;;;;0.10;0.10;;;;;;;;;;5110101;28;20051;-52
2023/07/18 05:10:24;;;;;;;0.10;0.10;;;;;;;;;;5103996;28;20047;-52
2023/07/18 05:12:51;;;;;;;0.10;0.10;;;;;;;;;;5090924;28;20044;-52
2023/07/18 05:15:18;;;;;;;0.10;0.10;;;;;;;;;;5113768;28;20116;-52
2023/07/18 05:17:43;;;;;;;0.10;0.10;;;;;;;;;;5131389;28;20388;-53
2023/07/18 05:20:10;;;;;;;0.10;0.10;;;;;;;;;;5122570;28;20182;-52
2023/07/18 05:22:38;;;;;;;0.10;0.10;;;;;;;;;;5090603;28;20404;-53
2023/07/18 05:25:04;;;;;;;0.10;0.10;;;;;;;;;;5094031;28;20500;-52
2023/07/18 05:27:30;;;;;;;0.10;0.10;;;;;;;;;;5111154;28;20047;-53
2023/07/18 05:29:56;;;;;;;0.10;0.10;;;;;;;;;;5110915;28;20071;-53
2023/07/18 05:32:22;;;;;;;0.10;0.10;;;;;;;;;;5111270;28;20057;-53
2023/07/18 05:34:48;;;;;;;0.10;0.10;;;;;;;;;;5110584;28;20043;-52
2023/07/18 05:37:13;;;;;;;0.10;0.10;;;;;;;;;;5110265;28;20096;-53
2023/07/18 05:39:39;;;;;;;0.10;0.10;;;;;;;;;;5110630;28;20075;-52
2023/07/18 05:42:04;;;;;;;0.10;0.10;;;;;;;;;;5110349;28;20047;-52
2023/07/18 05:44:30;;;;;;;0.10;0.10;;;;;;;;;;5110907;28;20040;-53
2023/07/18 05:46:56;;;;;;;0.10;0.10;;;;;;;;;;5110098;28;20047;-53
2023/07/18 05:49:21;;;;;;;0.10;0.10;;;;;;;;;;5110783;28;20059;-53
2023/07/18 05:51:47;;;;;;;0.10;0.10;;;;;;;;;;5110159;28;20051;-52
2023/07/18 05:54:13;;;;;;;0.10;0.10;;;;;;;;;;5110797;28;20399;-52
2023/07/18 05:56:38;;;;;;;0.10;0.10;;;;;;;;;;5110736;28;20044;-52
2023/07/18 05:59:06;;;;;;;0.10;0.10;;;;;;;;;;5110654;28;20407;-53
2023/07/18 06:01:32;;;;;;;0.10;0.10;;;;;;;;;;5110304;28;20109;-53
2023/07/18 06:03:58;;;;;;;0.10;0.10;;;;;;;;;;5110950;28;20407;-52
2023/07/18 06:06:24;;;;;;;0.10;0.10;;;;;;;;;;5110678;28;20095;-53
2023/07/18 06:08:50;;;;;;;0.10;0.10;;;;;;;;;;5104363;28;20044;-53
2023/07/18 06:11:16;;;;;;;0.10;0.10;;;;;;;;;;5099501;28;20275;-53
2023/07/18 06:13:42;;;;;;;0.10;0.10;;;;;;;;;;5105317;28;20632;-52
2023/07/18 06:16:08;;;;;;;0.10;0.10;;;;;;;;;;5097498;28;20067;-52
2023/07/18 06:18:35;;;;;;;0.10;0.10;;;;;;;;;;5097309;28;20059;-53
2023/07/18 06:21:02;;;;;;;0.10;0.10;;;;;;;;;;5109377;28;20055;-52
2023/07/18 06:23:29;;;;;;;0.10;0.10;;;;;;;;;;5113883;28;20044;-52
2023/07/18 06:25:55;;;;;;;0.10;0.10;;;;;;;;;;5113898;28;20047;-53
2023/07/18 06:28:20;;;;;;;0.10;0.10;;;;;;;;;;5110050;28;20040;-53
2023/07/18 06:30:47;;;;;;;0.10;0.10;;;;;;;;;;5104167;28;20044;-52
2023/07/18 06:33:13;;;;;;;0.10;0.10;;;;;;;;;;5093559;28;20048;-53
2023/07/18 06:35:39;;;;;;;0.10;0.10;;;;;;;;;;5099089;28;20307;-51
2023/07/18 06:38:04;;;;;;;0.10;0.10;;;;;;;;;;5103280;28;20380;-53
2023/07/18 06:40:30;;;;;;;0.10;0.10;;;;;;;;;;5112499;28;20051;-52
2023/07/18 06:42:56;;;;;;;0.10;0.10;;;;;;;;;;5108927;28;20459;-53
2023/07/18 06:45:21;;;;;;;0.10;0.10;;;;;;;;;;5095760;28;20496;-53
2023/07/18 06:47:47;;;;;;;0.10;0.10;;;;;;;;;;5102269;28;20156;-52
2023/07/18 06:50:13;;;;;;;0.10;0.10;;;;;;;;;;5101453;28;20055;-51
2023/07/18 06:52:38;;;;;;;0.10;0.10;;;;;;;;;;5113255;28;20082;-53
2023/07/18 06:55:06;;;;;;;0.10;0.10;;;;;;;;;;5101541;28;20073;-52
2023/07/18 06:57:31;;;;;;;0.10;0.10;;;;;;;;;;5113491;28;20096;-52
2023/07/18 06:59:57;;;;;;;0.10;0.10;;;;;;;;;;5113089;28;20484;-52
2023/07/18 07:02:22;;;;;;;0.10;0.10;;;;;;;;;;5113205;28;20246;-50
2023/07/18 07:04:48;;;;;;;0.10;0.10;;;;;;;;;;5113669;28;20044;-52
2023/07/18 07:07:13;;;;;;;0.10;0.10;;;;;;;;;;5113347;28;20048;-52
2023/07/18 07:09:39;;;;;;;0.10;0.10;;;;;;;;;;5112527;28;20076;-51
2023/07/18 07:12:05;;;;;;;0.10;0.10;;;;;;;;;;5092298;28;20082;-53
2023/07/18 07:14:30;;;;;;;0.10;0.10;;;;;;;;;;5109384;28;20073;-52
2023/07/18 07:16:57;;;;;;;0.10;0.10;;;;;;;;;;5112214;28;20180;-52
2023/07/18 07:19:22;;;;;;;0.10;0.10;;;;;;;;;;5112587;28;20182;-52
2023/07/18 07:21:48;;;;;;;0.10;0.10;;;;;;;;;;5112198;28;20048;-52
2023/07/18 07:24:13;;;;;;;0.10;0.10;;;;;;;;;;5112599;28;20135;-52
2023/07/18 07:26:39;;;;;;;0.10;0.10;;;;;;;;;;5112510;28;20043;-53
2023/07/18 07:29:05;;;;;;;0.10;0.10;;;;;;;;;;5112045;28;20403;-51
2023/07/18 07:31:31;;;;;;;0.10;0.10;;;;;;;;;;5111301;28;20083;-53
2023/07/18 07:33:56;;;;;;;0.10;0.10;;;;;;;;;;5112329;28;20074;-52
2023/07/18 07:36:22;;;;;;;0.10;0.10;;;;;;;;;;5111848;28;20246;-53
2023/07/18 07:38:48;;;;;;;0.17;0.17;;;;;;;;;;5110290;28;20483;-52
2023/07/18 07:41:14;;;;;;;0.10;0.10;;;;;;;;;;5111260;28;20423;-52
2023/07/18 07:43:39;;;;;;;0.10;0.10;;;;;;;;;;5107161;28;20051;-52
2023/07/18 07:46:05;;;;;;;0.10;0.10;;;;;;;;;;5095421;28;20044;-53
2023/07/18 07:48:31;;;;;;;0.10;0.10;;;;;;;;;;5100006;28;20139;-51
2023/07/18 07:50:58;;;;;;;0.10;0.10;;;;;;;;;;5100421;28;20048;-52
2023/07/18 07:53:24;;;;;;;0.10;0.10;;;;;;;;;;5093459;28;20044;-53
2023/07/18 07:55:49;;;;;;;0.10;0.10;;;;;;;;;;5109052;28;20065;-52
2023/07/18 07:58:15;;;;;;;0.10;0.10;;;;;;;;;;5106675;28;20036;-53
2023/07/18 08:00:40;;;;;;;0.10;0.10;;;;;;;;;;5112022;28;20044;-52
2023/07/18 08:03:06;;;;;;;0.10;0.10;;;;;;;;;;5112472;28;20411;-52
2023/07/18 08:05:32;;;;;;;0.10;0.10;;;;;;;;;;5112252;28;20623;-52
2023/07/18 08:07:57;;;;;;;0.10;0.10;;;;;;;;;;5112036;28;20051;-52
2023/07/18 08:10:23;;;;;;;0.10;0.10;;;;;;;;;;5105203;28;20054;-53
2023/07/18 08:12:48;;;;;;;0.10;0.10;;;;;;;;;;5106719;28;20039;-53
2023/07/18 08:15:14;;;;;;;0.10;0.10;;;;;;;;;;5132698;28;20103;-53
2023/07/18 08:17:40;;;;;;;0.10;0.10;;;;;;;;;;5103877;28;20040;-52
2023/07/18 08:20:08;;;;;;;0.10;0.10;;;;;;;;;;5110560;28;20415;-53
2023/07/18 08:22:33;;;;;;;0.00;0.00;;;;;;;;;;5111879;28;20059;-53
2023/07/18 08:24:59;;;;;;;0.10;0.10;;;;;;;;;;5112143;28;20463;-53
2023/07/18 08:27:25;;;;;;;0.10;0.10;;;;;;;;;;5111991;28;20043;-51
2023/07/18 08:29:50;;;;;;;0.10;0.10;;;;;;;;;;5109758;28;20062;-53
2023/07/18 08:32:16;;;;;;;0.10;0.10;;;;;;;;;;5109822;28;20099;-53
2023/07/18 08:34:41;;;;;;;0.10;0.10;;;;;;;;;;5112062;28;20495;-53
2023/07/18 08:37:09;;;;;;;0.10;0.10;;;;;;;;;;5111356;28;20507;-52
2023/07/18 08:39:35;;;;;;;0.10;0.10;;;;;;;;;;5111699;28;20126;-52
2023/07/18 08:42:03;;;;;;;0.10;0.10;;;;;;;;;;5109298;28;20159;-52
2023/07/18 08:44:29;;;;;;;0.10;0.10;;;;;;;;;;5111862;28;20479;-53
2023/07/18 08:46:55;;;;;;;0.10;0.10;;;;;;;;;;5111241;28;20051;-53
2023/07/18 08:49:23;;;;;;;0.10;0.10;;;;;;;;;;5111791;28;20044;-52
2023/07/18 08:51:49;;;;;;;0.10;0.10;;;;;;;;;;5105138;28;20090;-52
2023/07/18 08:54:14;;;;;;;0.10;0.10;;;;;;;;;;5111565;28;20047;-53
2023/07/18 08:56:41;;;;;;;0.10;0.10;;;;;;;;;;5096874;28;20058;-52
2023/07/18 08:59:07;;;;;;;0.10;0.10;;;;;;;;;;5111577;28;20403;-52
2023/07/18 09:01:32;;;;;;;0.10;0.10;;;;;;;;;;5094680;28;20591;-52
2023/07/18 09:03:58;;;;;;;0.10;0.10;;;;;;;;;;5091344;28;20062;-52
2023/07/18 09:06:24;;;;;;;0.10;0.10;;;;;;;;;;5091240;28;20077;-53
2023/07/18 09:08:50;;;;;;;0.10;0.10;;;;;;;;;;5091016;28;20055;-52
2023/07/18 09:11:18;;;;;;;0.10;0.10;;;;;;;;;;5089967;28;20101;-54
2023/07/18 09:13:44;;;;;;;;;;;;;;;;;;5110567;28;20071;-52
2023/07/18 09:16:11;;;;;;;0.10;0.10;;;;;;;;;;5110794;28;20027;-52
2023/07/18 09:18:38;;;;;;;0.10;0.10;;;;;;;;;;5111131;28;20408;-53
2023/07/18 09:21:08;;;;;;;0.10;0.10;;;;;;;;;;5110707;28;20506;-53
2023/07/18 09:23:38;;;;;;;0.10;0.10;;;;;;;;;;5110598;28;20105;-52
2023/07/18 09:26:08;;;;;;;0.10;0.10;;;;;;;;;;5111349;28;20105;-52
2023/07/18 09:28:34;;;;;;;0.10;0.10;;;;;;;;;;5111455;28;20492;-52
2023/07/18 09:30:59;;;;;;;0.10;0.10;;;;;;;;;;5110422;28;20139;-53
2023/07/18 09:33:25;;;;;;;0.10;0.10;;;;;;;;;;5110805;28;20400;-52
2023/07/18 09:35:50;;;;;;;0.10;0.10;;;;;;;;;;5110942;28;20142;-53
2023/07/18 09:38:17;;;;;;;0.10;0.10;;;;;;;;;;5110873;28;20058;-52
2023/07/18 09:40:43;;;;;;;0.10;0.10;;;;;;;;;;5110505;28;20047;-53
2023/07/18 09:43:11;;;;;;;0.10;0.10;;;;;;;;;;5110160;28;20047;-53
2023/07/18 09:45:37;;;;;;;0.10;0.10;;;;;;;;;;5110251;28;20393;-52
2023/07/18 09:48:03;;;;;;;0.10;0.10;;;;;;;;;;5110926;28;20055;-53
2023/07/18 09:50:30;;;;;;;0.10;0.10;;;;;;;;;;5110520;28;20286;-52
2023/07/18 09:52:57;;;;;;;0.10;0.10;;;;;;;;;;5110430;28;20381;-52
2023/07/18 09:55:30;;;;;;;0.10;0.10;;;;;;;;;;5114194;28;20040;-53
2023/07/18 09:57:56;;;;;;;0.10;0.10;;;;;;;;;;5113732;28;20066;-52
2023/07/18 10:00:22;;;;;;;0.10;0.10;;;;;;;;;;5113856;28;20043;-53
2023/07/18 10:02:48;;;;;;;0.10;0.10;;;;;;;;;;5113377;28;20101;-53
2023/07/18 10:05:14;;;;;;;0.10;0.10;;;;;;;;;;5114019;28;20039;-53
2023/07/18 10:07:41;;;;;;;0.10;0.10;;;;;;;;;;5113856;28;20047;-53
2023/07/18 10:10:08;;;;;;;0.10;0.10;;;;;;;;;;5112661;28;20464;-51
2023/07/18 10:12:36;;;;;;;0.10;0.10;;;;;;;;;;5113204;28;20051;-52
2023/07/18 10:15:03;;;;;;;0.10;0.10;;;;;;;;;;5113723;28;20055;-53
2023/07/18 10:17:32;;;;;;;0.10;0.10;;;;;;;;;;5113083;28;20052;-52
2023/07/18 10:19:57;;;;;;;0.10;0.10;;;;;;;;;;5113555;28;20048;-51
2023/07/18 10:22:24;;;;;;;0.10;0.10;;;;;;;;;;5113494;28;20263;-53
2023/07/18 10:24:49;;;;;;;0.10;0.10;;;;;;;;;;5113487;28;20047;-53
2023/07/18 10:27:15;;;;;;;0.10;0.10;;;;;;;;;;5113256;28;20051;-53
2023/07/18 10:29:41;;;;;;;0.10;0.10;;;;;;;;;;5112785;28;20506;-51
2023/07/18 10:32:10;;;;;;;0.10;0.10;;;;;;;;;;5112278;28;20044;-52
2023/07/18 10:34:39;;;;;;;0.10;0.10;;;;;;;;;;5112900;28;20910;-52
2023/07/18 10:37:07;;;;;;;0.10;0.10;;;;;;;;;;5113341;28;20044;-53
2023/07/18 10:39:42;;;;;;;0.10;0.10;;;;;;;;;;5113261;28;20096;-53
2023/07/18 10:42:08;;;;;;;0.10;0.10;;;;;;;;;;5094083;28;20048;-53
2023/07/18 10:44:36;;;;;;;0.10;0.10;;;;;;;;;;5113312;28;20079;-53
2023/07/18 10:47:10;;;;;;;0.10;0.10;;;;;;;;;;5113405;28;20075;-53
2023/07/18 10:49:36;;;;;;;0.10;0.10;;;;;;;;;;5113579;28;20040;-52
2023/07/18 10:52:02;;;;;;;0.10;0.10;;;;;;;;;;5113081;28;20043;-52
2023/07/18 10:54:27;;;;;;;0.10;0.10;;;;;;;;;;5113163;28;20086;-52
2023/07/18 10:56:53;;;;;;;0.20;0.20;;;;;;;;;;5112973;28;20047;-53
2023/07/18 10:59:19;;;;;;;0.10;0.10;;;;;;;;;;5113262;28;20051;-52
2023/07/18 11:01:46;;;;;;;0.10;0.10;;;;;;;;;;5112326;28;20109;-53
2023/07/18 11:04:12;;;;;;;0.25;0.25;;;;;;;;;;5112587;28;20048;-52
2023/07/18 11:06:47;;;;;;;0.10;0.10;;;;;;;;;;5112243;28;20054;-53
2023/07/18 11:09:13;;;;;;;0.10;0.10;;;;;;;;;;5113316;28;20043;-53
2023/07/18 11:11:39;;;;;;;0.10;0.10;;;;;;;;;;5113995;28;20056;-53
2023/07/18 11:14:05;;;;;;;0.10;0.10;;;;;;;;;;5133865;28;20046;-53
2023/07/18 11:16:30;;;;;;;0.10;0.10;;;;;;;;;;5133641;28;20047;-53
2023/07/18 11:18:59;;;;;;;0.10;0.10;;;;;;;;;;5133697;28;20051;-53
2023/07/18 11:21:24;;;;;;;0.10;0.10;;;;;;;;;;5103596;28;20096;-53
2023/07/18 11:23:50;;;;;;;0.10;0.10;;;;;;;;;;5092216;28;20044;-53
2023/07/18 11:26:17;;;;;;;0.10;0.10;;;;;;;;;;5092462;28;20113;-52
2023/07/18 11:28:44;;;;;;;0.10;0.10;;;;;;;;;;5092867;28;20074;-51
2023/07/18 11:31:29;;;;;;;0.10;0.10;;;;;;;;;;5091836;28;20381;-52
2023/07/18 11:34:07;;;;;;;0.10;0.10;;;;;;;;;;5095174;28;20050;-53
2023/07/18 11:36:36;;;;;;;0.10;0.10;;;;;;;;;;5112090;28;20048;-52
2023/07/18 11:39:03;;;;;;;0.10;0.10;;;;;;;;;;5112536;28;20134;-53
2023/07/18 11:41:32;;;;;;;0.10;0.10;;;;;;;;;;5112528;28;20044;-53
2023/07/18 11:43:58;;;;;;;0.10;0.10;;;;;;;;;;5112425;28;20054;-52
2023/07/18 11:46:44;;;;;;;0.10;0.10;;;;;;;;;;5111848;28;20048;-53
2023/07/18 11:49:12;;;;;;;0.10;0.10;;;;;;;;;;5097286;28;20043;-53
2023/07/18 11:51:39;;;;;;;0.10;0.10;;;;;;;;;;5112357;28;20044;-52
2023/07/18 11:54:04;;;;;;;0.10;0.10;;;;;;;;;;5112729;28;20058;-53
2023/07/18 11:56:30;;;;;;;0.10;0.10;;;;;;;;;;5112093;28;20047;-52
2023/07/18 11:58:56;;;;;;;0.10;0.10;;;;;;;;;;5110895;28;20054;-52
2023/07/18 12:01:22;;;;;;;0.10;0.10;;;;;;;;;;5111884;28;20448;-53
2023/07/18 12:03:49;;;;;;;0.10;0.10;;;;;;;;;;5110822;28;20056;-53
2023/07/18 12:06:16;;;;;;;0.10;0.10;;;;;;;;;;5112481;28;20135;-54
2023/07/18 12:08:41;;;;;;;0.10;0.10;;;;;;;;;;5111960;28;20389;-52
2023/07/18 12:11:09;;;;;;;0.10;0.10;;;;;;;;;;5110946;28;20046;-55
2023/07/18 12:13:36;;;;;;;0.10;0.10;;;;;;;;;;5130508;28;20965;-53
2023/07/18 12:16:02;;;;;;;0.10;0.10;;;;;;;;;;5132218;27;20432;-53
2023/07/18 12:18:27;;;;;;;0.10;0.10;;;;;;;;;;5132505;28;20051;-52
2023/07/18 12:20:53;;;;;;;0.10;0.10;;;;;;;;;;5110875;28;20060;-52
2023/07/18 12:23:18;;;;;;;0.10;0.10;;;;;;;;;;5091422;28;20559;-52
2023/07/18 12:25:44;;;;;;;0.10;0.10;;;;;;;;;;5091484;28;20048;-52
2023/07/18 12:28:10;;;;;;;0.10;0.10;;;;;;;;;;5091973;28;20389;-52
2023/07/18 12:30:35;;;;;;;0.10;0.10;;;;;;;;;;5091265;28;20097;-52
2023/07/18 12:33:01;;;;;;;0.10;0.10;;;;;;;;;;5091542;28;20094;-52
2023/07/18 12:35:26;;;;;;;0.10;0.10;;;;;;;;;;5099983;28;20055;-52
2023/07/18 12:37:54;;;;;;;0.10;0.10;;;;;;;;;;5111485;28;20047;-53
2023/07/18 12:40:20;;;;;;;0.10;0.10;;;;;;;;;;5111412;28;20395;-52
2023/07/18 12:42:46;;;;;;;0.20;0.20;;;;;;;;;;5111024;28;20056;-53
2023/07/18 12:45:12;;;;;;;0.10;0.10;;;;;;;;;;5111690;28;20138;-52
2023/07/18 12:47:38;;;;;;;0.10;0.10;;;;;;;;;;5111311;28;20039;-53
2023/07/18 12:50:06;;;;;;;0.10;0.10;;;;;;;;;;5110598;28;20123;-52
2023/07/18 12:52:31;;;;;;;0.10;0.10;;;;;;;;;;5111436;28;20047;-52
2023/07/18 12:54:57;;;;;;;0.10;0.10;;;;;;;;;;5111344;28;20398;-52
2023/07/18 12:57:23;;;;;;;0.10;0.10;;;;;;;;;;5111144;28;20055;-52
2023/07/18 12:59:49;;;;;;;0.10;0.10;;;;;;;;;;5108628;28;20039;-52
2023/07/18 13:02:14;;;;;;;0.10;0.10;;;;;;;;;;5090732;28;20061;-52
2023/07/18 13:04:40;;;;;;;0.10;0.10;;;;;;;;;;5106635;28;20446;-52
2023/07/18 13:07:07;;;;;;;0.10;0.10;;;;;;;;;;5111085;28;20051;-52
2023/07/18 13:09:32;;;;;;;0.10;0.10;;;;;;;;;;5109587;28;20419;-52
2023/07/18 13:11:59;;;;;;;0.10;0.10;;;;;;;;;;5108995;28;20044;-52
2023/07/18 13:14:25;;;;;;;0.10;0.10;;;;;;;;;;5110511;28;20043;-52
2023/07/18 13:16:50;;;;;;;0.10;0.10;;;;;;;;;;5110565;28;20205;-52
2023/07/18 13:19:16;;;;;;;0.10;0.10;;;;;;;;;;5110496;28;20043;-51
2023/07/18 13:21:43;;;;;;;0.10;0.10;;;;;;;;;;5110628;28;20093;-52
2023/07/18 13:24:09;;;;;;;0.10;0.10;;;;;;;;;;5091942;28;20445;-53
2023/07/18 13:26:35;;;;;;;0.10;0.10;;;;;;;;;;5110845;28;20047;-52
2023/07/18 13:29:01;;;;;;;0.15;0.15;;;;;;;;;;5112256;28;20082;-52
2023/07/18 13:31:26;;;;;;;0.10;0.10;;;;;;;;;;5114093;28;20138;-52
2023/07/18 13:33:52;;;;;;;0.10;0.10;;;;;;;;;;5114369;28;20054;-52
2023/07/18 13:36:18;;;;;;;0.10;0.10;;;;;;;;;;5114215;28;20143;-52
2023/07/18 13:38:44;;;;;;;0.10;0.10;;;;;;;;;;5113973;28;20055;-52
2023/07/18 13:41:10;;;;;;;0.10;0.10;;;;;;;;;;5111730;28;20457;-52
2023/07/18 13:43:37;;;;;;;0.10;0.10;;;;;;;;;;5113934;28;20043;-53
2023/07/18 13:46:03;;;;;;;0.10;0.10;;;;;;;;;;5113650;28;20067;-52
2023/07/18 13:48:29;;;;;;;0.10;0.10;;;;;;;;;;5113284;28;20553;-52
2023/07/18 13:50:55;;;;;;;0.10;0.10;;;;;;;;;;5112116;28;20043;-52
2023/07/18 13:53:20;;;;;;;0.10;0.10;;;;;;;;;;5114375;28;20047;-52
2023/07/18 13:55:47;;;;;;;0.10;0.10;;;;;;;;;;5114110;28;20564;-52
2023/07/18 13:58:13;;;;;;;0.10;0.10;;;;;;;;;;5114150;28;20048;-52
2023/07/18 14:00:38;;;;;;;0.10;0.10;;;;;;;;;;5113208;28;20055;-52
2023/07/18 14:03:04;;;;;;;0.10;0.10;;;;;;;;;;5114201;28;20423;-52
2023/07/18 14:05:41;;;;;;;0.10;0.10;;;;;;;;;;5113542;28;20422;-52
2023/07/18 14:08:07;;;;;;;0.10;0.10;;;;;;;;;;5113952;28;20061;-52
2023/07/18 14:10:33;;;;;;;0.10;0.10;;;;;;;;;;5112471;28;20086;-52
2023/07/18 14:12:58;;;;;;;0.10;0.10;;;;;;;;;;5113300;28;20396;-52
2023/07/18 14:15:24;;;;;;;0.10;0.10;;;;;;;;;;5113287;28;20503;-51
2023/07/18 14:17:50;;;;;;;0.10;0.10;;;;;;;;;;5113958;28;20120;-52
2023/07/18 14:20:15;;;;;;;0.10;0.10;;;;;;;;;;5113532;28;20104;-52
2023/07/18 14:22:42;;;;;;;0.10;0.10;;;;;;;;;;5113629;28;20096;-53
2023/07/18 14:25:10;;;;;;;0.10;0.10;;;;;;;;;;5113840;28;20480;-52
2023/07/18 14:27:36;;;;;;;0.10;0.10;;;;;;;;;;5114186;28;20044;-52
2023/07/18 14:30:03;;;;;;;0.10;0.10;;;;;;;;;;5113630;28;20434;-52
2023/07/18 14:32:28;;;;;;;0.10;0.10;;;;;;;;;;5113849;28;20047;-52
2023/07/18 14:34:54;;;;;;;0.10;0.10;;;;;;;;;;5113805;28;20192;-53
2023/07/18 14:37:20;;;;;;;0.10;0.10;;;;;;;;;;5113917;28;20052;-52